Aromas, CA

1:00 PM PDT on October 23, 2014 (GMT -0700)
Aromas Heights | Change Station
CLOSE
Current Station
Personal Weather Station
Location: Aromas, CA
Elevation: 160 ft
Nearby Weather Stations

Elev 160 ft 36.89 °N, 121.65 °W | Updated 3 seconds ago

Clear
Clear
77.4 °F
Feels Like 79 °F
N
0.0
Wind Variable Wind from NNE
Gusts 7.0 mph

Today
High -- | Low -- °F
--% Chance of Precip.
Yesterday
High -- | Low -- °F
Precip. -- in
7:21 AM 6:19 PM
Waning Crescent, 0% visible
Pressure 30.04 in
Visibility 10.0 miles
Clouds Clear
Heat Index 79 °F
Dew Point 54 °F
Humidity 45%
Rainfall 0.00 in
Snow Depth Not available.
UV 5 out of 12
Pollen 1.70 out of 12
Air Quality Not available.
Flu Activity Sporadic
METAR KWVI 231953Z AUTO 23008KT 190V250 10SM CLR 24/12 A3004 RMK AO2 SLP171 T02440122

More Conditions Fewer Conditions

Pressure 30.04 in
Visibility 10.0 miles
Clouds Clear
Heat Index 79 °F
Dew Point 54 °F
Humidity 45%
Rainfall 0.00 in
Snow Depth Not available.
UV 5 out of 12
Pollen 1.70 out of 12
Air Quality Not available.
Flu Activity Sporadic
METAR KWVI 231953Z AUTO 23008KT 190V250 10SM CLR 24/12 A3004 RMK AO2 SLP171 T02440122

More Conditions Fewer Conditions

10-Day Weather Forecast

Almanac

Astronomy

Oct. 23, 2014 Rise Set
Actual Time 7:21 AM PDT 6:19 PM PDT
Civil Twilight 6:55 AM PDT 6:45 PM PDT
Nautical Twilight 6:24 AM PDT 7:16 PM PDT
Astronomical Twilight 5:54 AM PDT 7:46 PM PDT
Moon 7:06 AM PDT 6:24 PM PDT
Length of Visible Light 11h 50m
Length of Day
10h 57m
Tomorrow will be 2m 11s shorter.
Waning Crescent, 0% of the Moon is Illuminated
Today
Waning Crescent
Oct 23
New
Oct 30
First Quarter
Nov 6
Full
Nov 14
Last Quarter

Today's Extremes

State Highs State Lows

Community

WunderPhotos

Upload Photos

1,764,350 photos uploaded!

WunderBlogs® & News

By Dr. Jeff Masters
Director of Meteorology, Weather Underground
By Kari Strenfel
Meteorologist, Weather Underground
By Christopher C. Burt
Weather Historian, Weather Underground
October 23, 2014
October 23, 2014
October 23, 2014

Nearby

Snow Depth

Station Depth Elevation
Leavitt Lake 0 in 9400 ft
Leavitt Meadows 0 in 7200 ft
Virginia Lakes Ridge 0 in 9200 ft
Summit Meadow 1 in 9122 ft
Monitor Pass 1 in 8350 ft

Earthquake Activity

City Distance Mag. Time & Date
Kettleman City, California 124 miles 2.5 9:08 AM PDT
2014-10-22
Minimum magnitude displayed is 2.5.

Coastal Water Temperatures

Place Temperature
Monterey, CA 63.0 °F
Redwood City, CA 66.0 °F

Nearby Weather Stations